Time;durP1;ratioP1;P1;durP2;ratioP2;P2;SDS_P1;SDS_P2;PMS_P1;PMS_P2;Temp;Humidity;BMP_temperature;BMP_pressure;BME280_temperature;BME280_humidity;BME280_pressure;Samples;Min_cycle;Max_cycle;Signal;HPM_P1;HPM_P2
2022/02/26 00:01:16;;;;;;;15.88;8.25;;;4.20;74.80;;;;;;5056328;28;20049;-84
2022/02/26 00:03:41;;;;;;;22.25;8.70;;;4.20;75.00;;;;;;5055507;28;20053;-85
2022/02/26 00:06:07;;;;;;;15.82;7.70;;;4.10;75.30;;;;;;5051575;28;20025;-88
2022/02/26 00:08:33;;;;;;;17.33;8.02;;;4.10;75.40;;;;;;5070205;28;20068;-87
2022/02/26 00:10:58;;;;;;;14.45;7.97;;;4.10;75.60;;;;;;5034671;28;20029;-86
2022/02/26 00:13:25;;;;;;;16.67;8.30;;;4.10;75.70;;;;;;5048958;28;20155;-86
2022/02/26 00:15:50;;;;;;;16.23;7.45;;;4.00;75.60;;;;;;5055136;28;20043;-86
2022/02/26 00:18:16;;;;;;;14.73;7.55;;;4.10;76.20;;;;;;5048165;28;20033;-85
2022/02/26 00:20:42;;;;;;;16.80;7.78;;;4.10;76.10;;;;;;5033326;28;20536;-87
2022/02/26 00:23:07;;;;;;;16.73;7.75;;;4.00;76.30;;;;;;5054267;28;20048;-86
2022/02/26 00:25:33;;;;;;;17.77;7.93;;;4.00;76.30;;;;;;5061038;28;20030;-87
2022/02/26 00:27:59;;;;;;;12.98;6.75;;;4.00;76.30;;;;;;5050199;28;20060;-88
2022/02/26 00:30:24;;;;;;;15.13;7.50;;;4.00;76.30;;;;;;5032938;28;20044;-87
2022/02/26 00:32:50;;;;;;;18.13;8.13;;;3.90;76.30;;;;;;5065159;28;20477;-84
2022/02/26 00:35:16;;;;;;;17.48;8.25;;;3.80;75.90;;;;;;5033025;28;20040;-86
2022/02/26 00:37:41;;;;;;;15.00;7.15;;;3.80;76.10;;;;;;5050685;28;20497;-86
2022/02/26 00:40:08;;;;;;;16.23;7.25;;;3.80;76.60;;;;;;5054493;28;20039;-86
2022/02/26 00:42:34;;;;;;;11.68;6.45;;;3.80;76.50;;;;;;5044781;28;20057;-87
2022/02/26 00:45:00;;;;;;;14.30;7.15;;;3.80;76.90;;;;;;5032460;28;20729;-85
2022/02/26 00:47:26;;;;;;;13.88;6.38;;;3.80;76.90;;;;;;5055245;28;20021;-88
2022/02/26 00:49:51;;;;;;;13.88;6.65;;;3.90;77.90;;;;;;5065254;28;20020;-89
2022/02/26 00:52:28;;;;;;;13.23;6.32;;;3.80;76.50;;;;;;5068294;28;20027;-89
2022/02/26 00:54:54;;;;;;;15.35;6.60;;;3.80;77.00;;;;;;5065890;28;20074;-86
2022/02/26 00:57:19;;;;;;;12.23;6.07;;;3.80;76.90;;;;;;5049643;28;20108;-87
2022/02/26 00:59:45;;;;;;;14.90;6.53;;;3.80;76.80;;;;;;5035531;28;20024;-87
2022/02/26 01:02:11;;;;;;;14.15;6.82;;;3.80;76.70;;;;;;5054232;28;20029;-86
2022/02/26 01:04:39;;;;;;;14.23;6.50;;;3.70;77.00;;;;;;5053273;28;20033;-87
2022/02/26 01:07:06;;;;;;;12.23;6.32;;;3.70;76.70;;;;;;5058609;28;20107;-86
2022/02/26 01:09:32;;;;;;;13.25;5.88;;;3.70;77.00;;;;;;5063413;28;20405;-87
2022/02/26 01:11:57;;;;;;;17.00;6.15;;;3.60;76.80;;;;;;5051342;28;20033;-86
2022/02/26 01:14:23;;;;;;;12.73;5.63;;;3.60;77.00;;;;;;5056840;28;20028;-86
2022/02/26 01:16:49;;;;;;;16.25;6.38;;;3.60;77.90;;;;;;5061440;28;20021;-87
2022/02/26 01:19:15;;;;;;;12.88;6.20;;;3.70;77.70;;;;;;5060462;28;20083;-84
2022/02/26 01:21:41;;;;;;;13.73;5.65;;;3.60;77.10;;;;;;5054185;28;20459;-83
2022/02/26 01:24:07;;;;;;;13.63;5.97;;;3.70;77.60;;;;;;5049770;28;20100;-84
2022/02/26 01:26:33;;;;;;;11.98;5.35;;;3.70;77.90;;;;;;5055656;28;20029;-83
2022/02/26 01:28:59;;;;;;;12.07;5.03;;;3.70;77.70;;;;;;5053764;28;20032;-83
2022/02/26 01:31:25;;;;;;;13.57;5.80;;;3.60;77.40;;;;;;5060694;28;20036;-84
2022/02/26 01:33:50;;;;;;;13.88;5.53;;;3.60;77.60;;;;;;5051244;28;20029;-86
2022/02/26 01:36:16;;;;;;;12.15;5.78;;;3.70;78.00;;;;;;5037783;28;20548;-85
2022/02/26 01:38:42;;;;;;;12.77;5.70;;;3.70;77.90;;;;;;5053336;28;20028;-85
2022/02/26 01:41:07;;;;;;;13.13;5.22;;;3.70;77.80;;;;;;5068497;28;20082;-85
2022/02/26 01:43:34;;;;;;;11.85;5.32;;;3.70;77.80;;;;;;5064847;28;20043;-85
2022/02/26 01:46:01;;;;;;;13.45;6.10;;;3.60;77.20;;;;;;5061639;28;20059;-85
2022/02/26 01:48:29;;;;;;;15.20;6.22;;;3.60;77.70;;;;;;5053221;28;20029;-86
2022/02/26 01:50:55;;;;;;;16.13;5.45;;;3.60;77.70;;;;;;5050163;28;20128;-84
2022/02/26 01:53:21;;;;;;;11.32;5.32;;;3.60;77.60;;;;;;5055413;28;20112;-85
2022/02/26 01:55:46;;;;;;;10.73;5.22;;;3.60;77.70;;;;;;5054302;28;20483;-85
2022/02/26 01:58:12;;;;;;;12.23;6.30;;;3.50;77.70;;;;;;5057453;28;20047;-84
2022/02/26 02:00:38;;;;;;;11.85;5.93;;;3.40;77.60;;;;;;5066349;28;20024;-85
2022/02/26 02:03:03;;;;;;;11.85;5.65;;;3.40;78.10;;;;;;5064700;28;20072;-85
2022/02/26 02:05:30;;;;;;;15.02;6.82;;;3.40;78.40;;;;;;5032184;28;20028;-85
2022/02/26 02:07:57;;;;;;;15.95;7.25;;;3.40;78.10;;;;;;5053189;28;20025;-84
2022/02/26 02:10:24;;;;;;;14.35;5.97;;;3.40;77.70;;;;;;5052929;28;20109;-86
2022/02/26 02:12:50;;;;;;;15.68;6.22;;;3.40;78.00;;;;;;5054284;28;20056;-83
2022/02/26 02:15:33;;;;;;;12.18;6.00;;;3.40;78.20;;;;;;5050542;28;20123;-85
2022/02/26 02:17:59;;;;;;;14.18;5.72;;;3.40;77.70;;;;;;5066259;28;20021;-83
2022/02/26 02:20:25;;;;;;;13.80;6.18;;;3.40;78.20;;;;;;5056363;28;20033;-84
2022/02/26 02:22:51;;;;;;;13.98;6.47;;;3.40;78.60;;;;;;5059645;28;20048;-85
2022/02/26 02:25:18;;;;;;;11.68;5.75;;;3.50;78.60;;;;;;5058071;28;20029;-85
2022/02/26 02:27:43;;;;;;;15.35;5.40;;;3.50;78.80;;;;;;5054098;28;20462;-84
2022/02/26 02:30:10;;;;;;;13.23;4.97;;;3.50;78.70;;;;;;5065142;28;20021;-84
2022/02/26 02:32:36;;;;;;;12.45;5.05;;;3.50;78.50;;;;;;5053862;28;20025;-84
2022/02/26 02:35:02;;;;;;;10.68;4.45;;;3.60;78.80;;;;;;5055855;28;20025;-85
2022/02/26 02:37:28;;;;;;;10.38;4.70;;;3.50;79.10;;;;;;5053113;28;20029;-84
2022/02/26 02:39:54;;;;;;;10.88;4.22;;;3.50;79.10;;;;;;5052322;28;20374;-84
2022/02/26 02:42:19;;;;;;;9.98;4.53;;;3.60;79.40;;;;;;5064047;28;20564;-85
2022/02/26 02:44:45;;;;;;;11.30;4.32;;;3.60;79.40;;;;;;5052435;28;20091;-86
2022/02/26 02:47:11;;;;;;;12.25;4.95;;;3.60;80.00;;;;;;5054621;28;20070;-86
2022/02/26 02:49:37;;;;;;;14.57;4.40;;;3.60;79.70;;;;;;5061711;28;20025;-85
2022/02/26 02:52:03;;;;;;;8.55;3.40;;;3.60;79.40;;;;;;5062930;28;20059;-85
2022/02/26 02:54:28;;;;;;;10.57;4.18;;;3.60;79.50;;;;;;5043155;28;20033;-87
2022/02/26 02:56:54;;;;;;;10.90;4.05;;;3.60;79.40;;;;;;5063761;28;20032;-85
2022/02/26 02:59:20;;;;;;;12.25;3.92;;;3.60;79.90;;;;;;5054797;28;20110;-84
2022/02/26 03:01:46;;;;;;;11.77;3.78;;;3.60;79.80;;;;;;5053314;28;20163;-85
2022/02/26 03:04:11;;;;;;;8.82;3.63;;;3.60;79.80;;;;;;5057535;28;20050;-86
2022/02/26 03:06:37;;;;;;;14.02;3.30;;;3.60;79.80;;;;;;5055666;28;20391;-87
2022/02/26 03:09:03;;;;;;;11.35;3.60;;;3.60;79.80;;;;;;5064060;28;20037;-86
2022/02/26 03:11:28;;;;;;;9.05;3.42;;;3.60;79.80;;;;;;5033696;28;20021;-87
2022/02/26 03:13:54;;;;;;;10.55;3.63;;;3.50;79.60;;;;;;5062562;28;20127;-86
2022/02/26 03:16:20;;;;;;;10.38;3.55;;;3.50;79.40;;;;;;5069381;28;20029;-87
2022/02/26 03:18:45;;;;;;;8.27;3.25;;;3.50;79.60;;;;;;5055699;28;20406;-86
2022/02/26 03:21:11;;;;;;;9.10;3.30;;;3.50;79.90;;;;;;5037338;28;20036;-86
2022/02/26 03:23:37;;;;;;;13.68;3.42;;;3.50;79.60;;;;;;5070297;28;20129;-86
2022/02/26 03:26:03;;;;;;;9.32;3.42;;;3.40;79.50;;;;;;5058275;28;20029;-86
2022/02/26 03:28:29;;;;;;;10.32;3.28;;;3.40;79.60;;;;;;5060314;28;20409;-87
2022/02/26 03:30:54;;;;;;;8.20;2.83;;;3.40;79.60;;;;;;5071446;28;20039;-86
2022/02/26 03:33:20;;;;;;;12.45;3.50;;;3.40;80.10;;;;;;5069193;28;20018;-84
2022/02/26 03:35:46;;;;;;;9.85;3.50;;;3.40;79.70;;;;;;5056192;28;20371;-84
2022/02/26 03:38:11;;;;;;;10.50;3.13;;;3.40;79.70;;;;;;5066187;28;20033;-87
2022/02/26 03:40:37;;;;;;;8.85;3.05;;;3.40;79.80;;;;;;5059840;28;20096;-86
2022/02/26 03:43:03;;;;;;;10.27;3.45;;;3.30;79.80;;;;;;5057216;28;20041;-86
2022/02/26 03:45:29;;;;;;;7.47;3.65;;;3.30;79.80;;;;;;5055134;28;20107;-87
2022/02/26 03:47:55;;;;;;;10.23;3.65;;;3.30;80.10;;;;;;5069391;28;20052;-86
2022/02/26 03:50:21;;;;;;;6.93;3.17;;;3.40;80.40;;;;;;5068136;28;20032;-87
2022/02/26 03:52:46;;;;;;;8.57;2.83;;;3.30;80.20;;;;;;5065470;28;20061;-85
2022/02/26 03:55:12;;;;;;;7.20;3.10;;;3.30;80.40;;;;;;5061792;28;20017;-85
2022/02/26 03:57:38;;;;;;;9.43;2.97;;;3.30;80.20;;;;;;5045681;28;20490;-86
2022/02/26 04:00:06;;;;;;;8.18;2.88;;;3.30;80.10;;;;;;5066068;28;20025;-86
2022/02/26 04:02:32;;;;;;;8.93;3.28;;;3.20;80.10;;;;;;5065515;28;20493;-87
2022/02/26 04:04:57;;;;;;;9.00;3.08;;;3.20;80.40;;;;;;5033946;28;20040;-85
2022/02/26 04:07:23;;;;;;;8.30;2.88;;;3.20;80.30;;;;;;5050318;28;20021;-85
2022/02/26 04:09:48;;;;;;;6.45;2.55;;;3.20;80.50;;;;;;5046658;28;20083;-84
2022/02/26 04:12:16;;;;;;;8.50;2.80;;;3.20;80.60;;;;;;5067493;28;20462;-83
2022/02/26 04:14:42;;;;;;;7.35;2.75;;;3.20;80.30;;;;;;5069873;28;20547;-84
2022/02/26 04:17:08;;;;;;;9.60;2.92;;;3.20;80.80;;;;;;5057724;28;20032;-85
2022/02/26 04:19:33;;;;;;;10.60;2.90;;;3.20;80.70;;;;;;5053932;28;20024;-84
2022/02/26 04:21:59;;;;;;;7.90;2.60;;;3.20;81.10;;;;;;5042985;28;20550;-84
2022/02/26 04:24:25;;;;;;;7.93;3.00;;;3.30;80.70;;;;;;5037954;28;20052;-85
2022/02/26 04:26:51;;;;;;;7.38;2.38;;;3.20;80.80;;;;;;5053281;28;20120;-84
2022/02/26 04:29:17;;;;;;;7.47;2.60;;;3.20;80.70;;;;;;5069449;28;20115;-85
2022/02/26 04:31:42;;;;;;;8.13;2.83;;;3.30;81.70;;;;;;5059201;28;20051;-84
2022/02/26 04:34:08;;;;;;;6.47;2.63;;;3.20;80.50;;;;;;5058517;28;20032;-84
2022/02/26 04:36:34;;;;;;;8.15;2.40;;;3.20;80.60;;;;;;5065259;28;20016;-84
2022/02/26 04:39:00;;;;;;;8.57;2.30;;;3.20;80.70;;;;;;5066804;28;20497;-84
2022/02/26 04:41:25;;;;;;;5.85;2.08;;;3.20;81.70;;;;;;5073058;28;20477;-85
2022/02/26 04:43:51;;;;;;;9.02;2.35;;;3.20;80.50;;;;;;5065237;28;20458;-84
2022/02/26 04:46:16;;;;;;;6.35;1.95;;;3.10;80.70;;;;;;5061936;28;20029;-84
2022/02/26 04:48:42;;;;;;;9.75;2.58;;;3.20;80.90;;;;;;5055146;28;20523;-83
2022/02/26 04:51:09;;;;;;;11.70;2.55;;;3.20;81.10;;;;;;5067312;28;20018;-86
2022/02/26 04:53:39;;;;;;;5.55;2.20;;;3.20;80.90;;;;;;5058579;28;20074;-84
2022/02/26 04:56:06;;;;;;;4.75;1.67;;;3.10;81.30;;;;;;5059526;28;20112;-84
2022/02/26 04:58:32;;;;;;;6.63;2.13;;;3.10;81.20;;;;;;5061285;28;20148;-85
2022/02/26 05:00:58;;;;;;;6.97;2.30;;;3.20;81.20;;;;;;5059607;28;20038;-85
2022/02/26 05:03:25;;;;;;;4.63;1.50;;;3.10;81.00;;;;;;5057230;28;20040;-85
2022/02/26 05:05:51;;;;;;;8.32;1.83;;;3.10;80.90;;;;;;5055502;28;20480;-84
2022/02/26 05:08:17;;;;;;;5.20;1.85;;;3.10;81.20;;;;;;5061647;28;20575;-85
2022/02/26 05:10:43;;;;;;;7.63;1.88;;;3.10;81.70;;;;;;5057072;28;20017;-85
2022/02/26 05:13:09;;;;;;;7.60;2.13;;;3.10;81.30;;;;;;5059235;28;20051;-85
2022/02/26 05:15:34;;;;;;;9.98;1.73;;;3.20;81.40;;;;;;5058761;28;20167;-87
2022/02/26 05:18:00;;;;;;;8.20;2.25;;;3.10;81.20;;;;;;5057561;28;20129;-87
2022/02/26 05:20:26;;;;;;;6.00;1.88;;;3.10;81.20;;;;;;5072595;28;20040;-86
2022/02/26 05:22:51;;;;;;;7.20;1.50;;;3.10;81.10;;;;;;5059342;28;20041;-85
2022/02/26 05:25:17;;;;;;;7.63;1.83;;;3.10;81.60;;;;;;5055997;28;20032;-84
2022/02/26 05:27:43;;;;;;;4.88;1.52;;;3.10;81.50;;;;;;5055473;28;20106;-85
2022/02/26 05:30:11;;;;;;;6.40;1.50;;;3.10;81.70;;;;;;5049794;28;20152;-85
2022/02/26 05:32:37;;;;;;;3.60;1.63;;;3.10;81.60;;;;;;5054981;28;20025;-83
2022/02/26 05:35:05;;;;;;;4.47;1.80;;;3.10;81.80;;;;;;5066260;28;20032;-84
2022/02/26 05:37:31;;;;;;;9.05;1.52;;;3.10;81.50;;;;;;5065605;28;20099;-85
2022/02/26 05:39:56;;;;;;;3.53;1.30;;;3.10;81.30;;;;;;5062649;28;21704;-84
2022/02/26 05:42:22;;;;;;;3.83;1.60;;;3.00;81.40;;;;;;5052819;28;20485;-85
2022/02/26 05:44:47;;;;;;;4.25;1.63;;;3.10;81.70;;;;;;5068301;28;20076;-85
2022/02/26 05:47:13;;;;;;;6.90;1.95;;;3.10;81.90;;;;;;5057235;28;20029;-85
2022/02/26 05:49:39;;;;;;;5.57;1.65;;;3.00;81.60;;;;;;5053721;28;20028;-85
2022/02/26 05:52:05;;;;;;;7.20;1.90;;;3.10;81.60;;;;;;5055742;28;20067;-85
2022/02/26 05:54:31;;;;;;;4.50;1.50;;;3.00;81.80;;;;;;5045048;28;20065;-85
2022/02/26 05:56:57;;;;;;;5.47;1.55;;;3.00;82.20;;;;;;5064989;28;20020;-85
2022/02/26 05:59:23;;;;;;;4.57;1.67;;;3.10;81.90;;;;;;5054984;28;20375;-85
2022/02/26 06:01:49;;;;;;;6.13;1.48;;;3.00;81.90;;;;;;5052294;28;20021;-84
2022/02/26 06:04:14;;;;;;;6.10;1.50;;;3.10;82.00;;;;;;5055602;28;20042;-84
2022/02/26 06:06:40;;;;;;;7.10;1.60;;;3.00;81.90;;;;;;5065694;28;20385;-84
2022/02/26 06:09:06;;;;;;;5.75;1.30;;;3.00;82.90;;;;;;5047709;28;20107;-84
2022/02/26 06:11:31;;;;;;;3.78;1.17;;;3.00;81.90;;;;;;5055458;28;20060;-85
2022/02/26 06:13:57;;;;;;;6.00;1.27;;;3.00;81.80;;;;;;5053694;28;20057;-85
2022/02/26 06:16:22;;;;;;;5.72;1.52;;;2.90;82.00;;;;;;5060333;28;20085;-85
2022/02/26 06:18:48;;;;;;;8.15;1.63;;;3.00;82.00;;;;;;5061903;28;20082;-85
2022/02/26 06:21:14;;;;;;;5.53;1.15;;;2.90;82.60;;;;;;5050955;28;20032;-85
2022/02/26 06:23:40;;;;;;;7.70;1.50;;;2.90;82.00;;;;;;5054076;28;20421;-84
2022/02/26 06:26:06;;;;;;;5.43;1.45;;;2.90;81.80;;;;;;5055712;28;20032;-85
2022/02/26 06:28:31;;;;;;;3.22;1.27;;;2.80;82.00;;;;;;5055051;28;20025;-84
2022/02/26 06:30:57;;;;;;;4.63;1.45;;;2.90;82.50;;;;;;5055641;28;20039;-84
2022/02/26 06:33:23;;;;;;;3.15;1.23;;;2.80;82.20;;;;;;5051426;28;20018;-85
2022/02/26 06:35:49;;;;;;;5.85;1.45;;;2.80;82.10;;;;;;5051870;28;20040;-85
2022/02/26 06:38:14;;;;;;;7.43;1.73;;;2.80;82.40;;;;;;5054974;28;20406;-84
2022/02/26 06:40:40;;;;;;;7.07;1.63;;;2.80;82.80;;;;;;5054907;28;20032;-85
2022/02/26 06:43:06;;;;;;;6.45;1.50;;;2.80;82.60;;;;;;5057099;28;20029;-84
2022/02/26 06:45:32;;;;;;;4.38;1.35;;;2.90;82.80;;;;;;5067460;28;20115;-84
2022/02/26 06:47:57;;;;;;;4.65;1.60;;;2.80;83.30;;;;;;5054073;28;20033;-84
2022/02/26 06:50:23;;;;;;;5.00;1.65;;;2.80;82.60;;;;;;5064224;28;20072;-84
2022/02/26 06:52:49;;;;;;;5.00;1.48;;;2.80;82.50;;;;;;5060219;28;20025;-84
2022/02/26 06:55:15;;;;;;;6.38;1.70;;;2.80;82.70;;;;;;5057053;28;20017;-85
2022/02/26 06:57:41;;;;;;;5.78;1.83;;;2.80;83.30;;;;;;5057184;28;20115;-85
2022/02/26 07:00:08;;;;;;;7.88;1.90;;;2.70;83.10;;;;;;5053925;28;20128;-85
2022/02/26 07:02:34;;;;;;;8.27;2.08;;;2.80;84.50;;;;;;5075397;28;20028;-84
2022/02/26 07:05:00;;;;;;;8.18;1.92;;;2.80;83.20;;;;;;5056790;28;20095;-84
2022/02/26 07:07:26;;;;;;;6.03;1.77;;;2.80;82.90;;;;;;5055879;28;20021;-85
2022/02/26 07:09:52;;;;;;;5.38;1.48;;;2.80;84.10;;;;;;5056767;28;20130;-86
2022/02/26 07:12:18;;;;;;;5.75;1.58;;;2.80;83.00;;;;;;5052756;28;20018;-84
2022/02/26 07:14:44;;;;;;;8.48;2.15;;;2.80;83.60;;;;;;5056978;28;20037;-84
2022/02/26 07:17:10;;;;;;;5.30;1.35;;;2.90;83.30;;;;;;5058661;28;20025;-84
2022/02/26 07:19:35;;;;;;;6.55;1.85;;;2.90;84.10;;;;;;5056372;28;20035;-83
2022/02/26 07:22:01;;;;;;;4.70;1.50;;;2.90;83.30;;;;;;5055060;28;20029;-84
2022/02/26 07:24:27;;;;;;;4.72;1.52;;;3.00;84.40;;;;;;5054542;28;20055;-84
2022/02/26 07:26:53;;;;;;;7.80;2.35;;;3.00;83.60;;;;;;5053527;28;20044;-84
2022/02/26 07:29:19;;;;;;;4.05;1.90;;;3.10;83.90;;;;;;5057971;28;20029;-85
2022/02/26 07:31:45;;;;;;;6.38;1.70;;;3.10;83.80;;;;;;5056178;28;20035;-85
2022/02/26 07:34:10;;;;;;;3.88;1.50;;;3.20;83.60;;;;;;5054589;28;20033;-83
2022/02/26 07:36:36;;;;;;;6.68;1.88;;;3.20;83.50;;;;;;5055924;28;20078;-84
2022/02/26 07:39:03;;;;;;;7.00;1.75;;;3.30;83.50;;;;;;5051916;28;20057;-84
2022/02/26 07:41:29;;;;;;;9.50;2.13;;;3.30;83.70;;;;;;5057914;28;20028;-85
2022/02/26 07:43:55;;;;;;;5.55;1.60;;;3.40;83.60;;;;;;5056162;28;20066;-85
2022/02/26 07:46:21;;;;;;;6.72;1.88;;;3.50;83.80;;;;;;5055751;28;20075;-85
2022/02/26 07:48:47;;;;;;;6.40;1.80;;;3.50;83.60;;;;;;5056386;28;20119;-85
2022/02/26 07:51:13;;;;;;;6.65;2.50;;;3.60;83.70;;;;;;5052592;28;20029;-83
2022/02/26 07:53:39;;;;;;;7.07;1.88;;;3.60;84.60;;;;;;5055764;28;20489;-84
2022/02/26 07:56:05;;;;;;;7.32;2.10;;;3.70;84.40;;;;;;5056104;28;20063;-86
2022/02/26 07:58:30;;;;;;;8.23;2.00;;;3.80;83.90;;;;;;5064721;28;20123;-86
2022/02/26 08:00:56;;;;;;;6.07;2.10;;;3.80;84.40;;;;;;5067137;28;20564;-87
2022/02/26 08:03:22;;;;;;;4.05;1.50;;;3.90;83.90;;;;;;5067550;28;20037;-86
2022/02/26 08:05:48;;;;;;;4.97;1.70;;;4.00;84.10;;;;;;5052842;28;20090;-84
2022/02/26 08:08:13;;;;;;;4.97;1.73;;;4.10;84.00;;;;;;5058489;28;20035;-84
2022/02/26 08:10:39;;;;;;;6.97;1.83;;;4.20;84.00;;;;;;5064216;28;20128;-85
2022/02/26 08:13:04;;;;;;;5.40;1.83;;;4.30;83.80;;;;;;5063094;28;20523;-85
2022/02/26 08:15:30;;;;;;;7.30;1.60;;;4.30;83.90;;;;;;5054175;28;20024;-85
2022/02/26 08:17:57;;;;;;;4.72;1.63;;;4.40;84.10;;;;;;5051692;28;20029;-84
2022/02/26 08:20:23;;;;;;;8.18;1.95;;;4.40;84.10;;;;;;5058577;28;20100;-87
2022/02/26 08:22:49;;;;;;;4.25;1.25;;;4.50;83.70;;;;;;5055055;28;20025;-84
2022/02/26 08:25:15;;;;;;;5.90;1.80;;;4.60;85.50;;;;;;5056492;28;20044;-81
2022/02/26 08:27:42;;;;;;;7.60;1.88;;;4.70;85.00;;;;;;5054692;28;20021;-79
2022/02/26 08:30:11;;;;;;;9.48;2.00;;;4.90;85.00;;;;;;5051786;28;20530;-80
2022/02/26 08:32:37;;;;;;;5.22;1.60;;;5.00;84.40;;;;;;5057075;28;20534;-79
2022/02/26 08:35:04;;;;;;;5.50;2.10;;;5.00;84.50;;;;;;5053844;28;20655;-79
2022/02/26 08:37:30;;;;;;;6.90;1.75;;;5.10;84.50;;;;;;5058023;28;20056;-85
2022/02/26 08:39:55;;;;;;;8.68;2.35;;;5.20;84.20;;;;;;5054970;28;20068;-84
2022/02/26 08:42:22;;;;;;;5.40;1.63;;;5.10;84.30;;;;;;5052740;28;20531;-84
2022/02/26 08:44:48;;;;;;;6.70;1.90;;;5.20;84.20;;;;;;5054385;28;20398;-82
2022/02/26 08:47:14;;;;;;;5.65;1.90;;;5.20;83.90;;;;;;5054348;28;20029;-83
2022/02/26 08:49:39;;;;;;;6.15;1.95;;;5.20;84.20;;;;;;5056209;28;20163;-79
2022/02/26 08:52:06;;;;;;;9.25;1.90;;;5.20;84.00;;;;;;5056174;28;20025;-84
2022/02/26 08:54:32;;;;;;;6.82;1.90;;;5.30;84.00;;;;;;5056504;28;20393;-82
2022/02/26 08:56:58;;;;;;;13.00;2.20;;;5.40;84.10;;;;;;5050318;28;20508;-70
2022/02/26 08:59:24;;;;;;;7.28;2.00;;;5.50;84.70;;;;;;5057085;28;20067;-73
2022/02/26 09:01:49;;;;;;;7.65;2.08;;;5.60;84.40;;;;;;5054039;28;20044;-74
2022/02/26 09:04:15;;;;;;;6.55;2.15;;;5.70;83.90;;;;;;5052034;28;20029;-76
2022/02/26 09:06:41;;;;;;;7.75;2.10;;;5.80;83.60;;;;;;5055248;28;20374;-75
2022/02/26 09:09:10;;;;;;;7.63;2.10;;;5.90;83.30;;;;;;5050404;28;20398;-77
2022/02/26 09:11:37;;;;;;;6.60;1.73;;;6.00;83.30;;;;;;5055758;28;20025;-78
2022/02/26 09:14:04;;;;;;;5.65;1.73;;;6.10;82.60;;;;;;5054778;28;20044;-81
2022/02/26 09:16:30;;;;;;;8.15;1.52;;;6.20;82.20;;;;;;5060824;28;20077;-81
2022/02/26 09:18:56;;;;;;;6.60;1.77;;;6.10;81.40;;;;;;5067423;28;20060;-92
2022/02/26 09:21:21;;;;;;;8.02;1.83;;;6.10;81.10;;;;;;5066300;28;20167;-83
2022/02/26 09:23:47;;;;;;;9.05;2.17;;;6.10;81.40;;;;;;5064914;28;20056;-85
2022/02/26 09:26:13;;;;;;;6.72;1.70;;;6.10;81.40;;;;;;5063096;28;20036;-89
2022/02/26 09:28:39;;;;;;;5.60;1.83;;;6.10;81.60;;;;;;5048601;28;20041;-89
2022/02/26 09:31:06;;;;;;;6.90;1.80;;;6.10;81.60;;;;;;5060125;28;20027;-82
2022/02/26 09:33:37;;;;;;;8.80;1.67;;;6.20;81.60;;;;;;5063320;28;20048;-83
2022/02/26 09:36:05;;;;;;;5.40;1.77;;;6.20;81.30;;;;;;5053615;28;20060;-91
2022/02/26 09:38:31;;;;;;;5.43;1.75;;;6.20;81.20;;;;;;5063406;28;20141;-81
2022/02/26 09:41:05;;;;;;;6.55;2.15;;;6.30;81.50;;;;;;5060861;28;20028;-89
2022/02/26 09:43:31;;;;;;;5.88;1.83;;;6.30;81.30;;;;;;5057263;28;20037;-86
2022/02/26 09:45:58;;;;;;;7.05;1.75;;;6.40;80.90;;;;;;5057801;28;20100;-91
2022/02/26 09:48:23;;;;;;;6.85;2.05;;;6.40;80.90;;;;;;5071895;28;20067;-91
2022/02/26 09:50:49;;;;;;;6.55;1.40;;;6.50;80.90;;;;;;5068301;28;20020;-84
2022/02/26 09:53:16;;;;;;;7.20;1.63;;;6.60;80.50;;;;;;5055595;28;20029;-83
2022/02/26 09:55:43;;;;;;;4.80;1.80;;;6.60;80.50;;;;;;5056880;28;20108;-83
2022/02/26 09:58:10;;;;;;;7.65;2.33;;;6.60;80.50;;;;;;5054432;28;20032;-82
2022/02/26 10:00:37;;;;;;;6.68;1.80;;;6.60;80.30;;;;;;5053567;28;20107;-82
2022/02/26 10:03:04;;;;;;;5.80;1.73;;;6.70;79.80;;;;;;5049044;28;20021;-82
2022/02/26 10:05:30;;;;;;;7.22;2.00;;;6.70;79.70;;;;;;5055433;28;20029;-82
2022/02/26 10:07:56;;;;;;;4.32;1.70;;;6.70;79.70;;;;;;5052756;28;20444;-81
2022/02/26 10:10:25;;;;;;;6.05;1.85;;;6.80;79.80;;;;;;5053338;28;20058;-81
2022/02/26 10:12:53;;;;;;;4.38;2.00;;;6.90;79.90;;;;;;5050684;28;20481;-88
2022/02/26 10:15:21;;;;;;;7.25;1.90;;;7.00;79.50;;;;;;5064991;28;20490;-88
2022/02/26 10:17:59;;;;;;;6.97;2.40;;;7.00;79.20;;;;;;5055192;28;20085;-90
2022/02/26 10:20:24;;;;;;;5.93;1.98;;;7.10;79.20;;;;;;5054757;28;20025;-86
2022/02/26 10:22:52;;;;;;;5.05;1.70;;;7.20;79.10;;;;;;5061469;28;20051;-89
2022/02/26 10:25:27;;;;;;;7.22;2.05;;;7.20;78.70;;;;;;5060026;28;20029;-86
2022/02/26 10:27:58;;;;;;;5.50;1.77;;;7.30;78.30;;;;;;5056242;28;20031;-86
2022/02/26 10:30:28;;;;;;;7.95;2.10;;;7.30;78.30;;;;;;5065036;28;20132;-83
2022/02/26 10:33:27;;;;;;;6.78;2.22;;;7.40;78.00;;;;;;5050220;28;20397;-86
2022/02/26 10:35:56;;;;;;;6.72;2.22;;;7.40;76.90;;;;;;5038716;28;20465;-81
2022/02/26 10:38:27;;;;;;;5.78;1.80;;;7.50;76.70;;;;;;5054467;28;20037;-85
2022/02/26 10:40:57;;;;;;;5.72;2.80;;;7.50;76.50;;;;;;5058203;28;20457;-85
2022/02/26 10:43:55;;;;;;;5.28;1.80;;;7.60;76.90;;;;;;5058914;28;20037;-86
2022/02/26 10:46:30;;;;;;;6.78;1.95;;;7.60;76.80;;;;;;5053541;28;20124;-83
2022/02/26 10:49:04;;;;;;;8.02;1.85;;;7.70;76.40;;;;;;5052446;28;20024;-84
2022/02/26 10:51:31;;;;;;;4.85;1.95;;;7.70;76.20;;;;;;5051116;28;20048;-84
2022/02/26 10:53:59;;;;;;;5.28;2.33;;;7.80;76.60;;;;;;5049347;28;20021;-84
2022/02/26 10:56:37;;;;;;;7.07;1.70;;;7.80;76.50;;;;;;5053248;28;20436;-85
2022/02/26 10:59:04;;;;;;;6.90;2.22;;;7.80;76.50;;;;;;5051499;28;20032;-85
2022/02/26 11:01:30;;;;;;;7.82;2.25;;;7.90;75.80;;;;;;5051400;28;20547;-85
2022/02/26 11:03:57;;;;;;;7.38;2.30;;;8.00;75.50;;;;;;5051362;28;20044;-85
2022/02/26 11:06:24;;;;;;;6.18;1.85;;;8.00;75.70;;;;;;5048986;28;20021;-85
2022/02/26 11:08:51;;;;;;;4.65;1.40;;;8.00;75.70;;;;;;5050348;28;20453;-84
2022/02/26 11:11:19;;;;;;;7.68;2.03;;;8.10;75.50;;;;;;5055477;28;20052;-83
2022/02/26 11:13:48;;;;;;;6.45;1.85;;;8.10;75.50;;;;;;5052275;28;20029;-84
2022/02/26 11:16:14;;;;;;;4.55;1.70;;;8.20;74.90;;;;;;5052529;28;20037;-83
2022/02/26 11:18:46;;;;;;;6.47;1.83;;;8.20;74.00;;;;;;5054036;28;20099;-84
2022/02/26 11:21:14;;;;;;;6.25;1.63;;;8.30;74.10;;;;;;5049458;28;20025;-84
2022/02/26 11:23:40;;;;;;;5.80;1.50;;;8.40;72.90;;;;;;5067594;28;20045;-84
2022/02/26 11:26:08;;;;;;;5.35;1.38;;;8.40;73.20;;;;;;5054977;28;20052;-81
2022/02/26 11:28:40;;;;;;;4.68;1.67;;;8.50;73.50;;;;;;5053638;28;20031;-81
2022/02/26 11:31:09;;;;;;;4.15;1.35;;;8.50;73.10;;;;;;5054673;28;20378;-81
2022/02/26 11:33:36;;;;;;;5.63;1.98;;;8.60;73.30;;;;;;5056863;28;20024;-81
2022/02/26 11:36:04;;;;;;;6.78;1.80;;;8.60;73.10;;;;;;5051798;28;20045;-80
2022/02/26 11:38:35;;;;;;;7.80;1.50;;;8.60;72.50;;;;;;5064833;28;20385;-77
2022/02/26 11:41:23;;;;;;;7.45;1.85;;;8.70;72.80;;;;;;5073102;28;20029;-76
2022/02/26 11:43:55;;;;;;;6.82;1.65;;;9.00;71.20;;;;;;5055737;28;20068;-76
2022/02/26 11:46:34;;;;;;;5.47;1.60;;;9.00;70.00;;;;;;5057327;28;20099;-77
2022/02/26 11:49:19;;;;;;;6.82;2.13;;;9.10;70.10;;;;;;5059477;28;20126;-87
2022/02/26 11:51:47;;;;;;;5.00;1.70;;;9.10;68.80;;;;;;5057105;28;20013;-87
2022/02/26 11:54:16;;;;;;;7.07;1.70;;;9.10;69.00;;;;;;5070147;28;20035;-87
2022/02/26 11:56:55;;;;;;;7.60;1.80;;;9.10;69.60;;;;;;5057830;28;20013;-86
2022/02/26 11:59:36;;;;;;;4.90;1.60;;;9.10;69.80;;;;;;5057842;28;20459;-88
2022/02/26 12:02:11;;;;;;;4.63;1.58;;;9.10;70.20;;;;;;5051484;28;20083;-88
2022/02/26 12:04:57;;;;;;;5.10;1.48;;;9.10;69.60;;;;;;5049011;28;20033;-87
2022/02/26 12:07:38;;;;;;;6.50;1.92;;;9.20;68.20;;;;;;5049209;28;20021;-89
2022/02/26 12:10:13;;;;;;;5.63;1.55;;;9.10;68.80;;;;;;5050010;28;20509;-88
2022/02/26 12:12:41;;;;;;;6.32;1.67;;;9.10;68.00;;;;;;5048995;28;20021;-87
2022/02/26 12:15:18;;;;;;;5.88;1.60;;;9.10;65.80;;;;;;5050916;28;20029;-89
2022/02/26 12:18:09;;;;;;;4.70;1.58;;;9.20;66.30;;;;;;5047435;28;20416;-84
2022/02/26 12:20:35;;;;;;;5.18;1.13;;;9.30;66.00;;;;;;5048778;28;20434;-85
2022/02/26 12:23:27;;;;;;;3.22;1.27;;;9.30;65.80;;;;;;5050951;28;20611;-87
2022/02/26 12:26:01;;;;;;;5.45;1.55;;;9.30;65.30;;;;;;5061445;28;20049;-86
2022/02/26 12:28:27;;;;;;;;;;;9.40;63.50;;;;;;5049666;28;20524;-86
2022/02/26 12:31:13;;;;;;;7.03;1.55;;;9.40;61.60;;;;;;5049678;28;19917;-87
2022/02/26 12:33:45;;;;;;;3.85;1.30;;;9.50;63.70;;;;;;5048127;28;20174;-86
2022/02/26 12:36:13;;;;;;;3.85;1.27;;;9.50;63.00;;;;;;5048789;28;20443;-84
2022/02/26 12:38:51;;;;;;;3.15;1.38;;;9.60;61.30;;;;;;5046847;28;20072;-85
2022/02/26 12:41:28;;;;;;;2.72;1.23;;;9.60;62.30;;;;;;5046970;28;20052;-84
2022/02/26 12:43:57;;;;;;;2.17;1.00;;;9.60;63.30;;;;;;5048642;28;20528;-85
2022/02/26 12:46:23;;;;;;;5.55;1.50;;;9.60;62.30;;;;;;5053331;28;20048;-85
2022/02/26 12:48:50;;;;;;;2.80;1.02;;;9.60;62.70;;;;;;5054639;28;20032;-85
2022/02/26 12:51:16;;;;;;;3.25;1.05;;;9.60;63.10;;;;;;5053167;28;20070;-85
2022/02/26 12:53:42;;;;;;;5.15;1.30;;;9.70;63.10;;;;;;5055269;28;20025;-86
2022/02/26 12:56:07;;;;;;;2.67;1.15;;;9.90;60.70;;;;;;5057086;28;20048;-84